createdAt,value
2022-11-12T00:02:21.084Z,18.40
2022-11-12T00:07:45.682Z,19.80
2022-11-12T00:13:10.376Z,17.70
2022-11-12T00:18:35.281Z,18.40
2022-11-12T00:24:00.088Z,21.20
2022-11-12T00:29:24.372Z,22.50
2022-11-12T00:34:49.001Z,23.80
2022-11-12T00:40:13.792Z,20.40
2022-11-12T00:45:38.354Z,18.10
2022-11-12T00:51:04.932Z,23.20
2022-11-12T00:56:34.456Z,19.50
2022-11-12T01:02:00.144Z,19.50
2022-11-12T01:07:24.635Z,18.20
2022-11-12T01:12:48.953Z,22.20
2022-11-12T01:18:13.835Z,23.00
2022-11-12T01:23:40.293Z,21.10
2022-11-12T01:29:05.297Z,19.40
2022-11-12T01:34:30.321Z,19.40
2022-11-12T01:39:55.265Z,20.20
2022-11-12T01:45:20.732Z,14.60
2022-11-12T01:50:45.388Z,17.90
2022-11-12T01:56:10.765Z,16.70
2022-11-12T02:01:37.441Z,14.60
2022-11-12T02:07:02.723Z,16.80
2022-11-12T02:12:47.076Z,18.30
2022-11-12T02:18:11.543Z,25.90
2022-11-12T02:23:37.273Z,22.40
2022-11-12T02:29:02.282Z,17.40
2022-11-12T02:34:27.059Z,17.50
2022-11-12T02:39:51.793Z,21.00
2022-11-12T02:45:16.976Z,19.30
2022-11-12T02:50:41.302Z,16.90
2022-11-12T02:56:06.283Z,17.20
2022-11-12T03:01:30.853Z,20.30
2022-11-12T03:06:55.594Z,18.40
2022-11-12T03:12:20.256Z,16.90
2022-11-12T03:17:45.292Z,18.50
2022-11-12T03:23:11.250Z,21.80
2022-11-12T03:28:35.727Z,20.50
2022-11-12T03:34:00.309Z,24.20
2022-11-12T03:39:25.097Z,22.30
2022-11-12T03:44:49.903Z,20.40
2022-11-12T03:50:16.581Z,20.60
2022-11-12T03:55:41.539Z,17.00
2022-11-12T04:01:05.991Z,19.20
2022-11-12T04:06:48.981Z,20.20
2022-11-12T04:12:32.470Z,22.50
2022-11-12T04:18:15.644Z,17.10
2022-11-12T04:23:41.607Z,26.00
2022-11-12T04:29:24.840Z,83.10
2022-11-12T04:34:49.921Z,35.50
2022-11-12T04:40:36.366Z,25.00
2022-11-12T04:46:02.791Z,26.60
2022-11-12T04:51:46.429Z,21.00
2022-11-12T04:57:10.982Z,21.80
2022-11-12T05:02:35.566Z,25.60
2022-11-12T05:08:02.889Z,31.10
2022-11-12T05:13:29.432Z,24.20
2022-11-12T05:18:53.885Z,24.40
2022-11-12T05:24:40.424Z,24.90
2022-11-12T05:30:03.902Z,28.10
2022-11-12T05:35:28.480Z,25.90
2022-11-12T05:40:53.427Z,24.90
2022-11-12T05:46:18.178Z,28.60
2022-11-12T05:51:42.887Z,32.50
2022-11-12T05:57:07.465Z,31.60
2022-11-12T06:02:32.164Z,31.60
2022-11-12T06:07:57.204Z,39.40
2022-11-12T06:13:23.077Z,33.90
2022-11-12T06:18:47.815Z,35.80
2022-11-12T06:24:12.410Z,31.30
2022-11-12T06:29:36.857Z,31.60
2022-11-12T06:35:01.870Z,30.10
2022-11-12T06:40:27.140Z,28.80
2022-11-12T06:45:51.804Z,25.10
2022-11-12T06:51:20.947Z,29.40
2022-11-12T06:56:45.647Z,26.80
2022-11-12T07:02:13.761Z,23.70
2022-11-12T07:07:38.502Z,25.50
2022-11-12T07:13:03.678Z,26.30
2022-11-12T07:18:29.099Z,24.70
2022-11-12T07:23:55.045Z,28.60
2022-11-12T07:29:35.625Z,33.00
2022-11-12T07:35:04.092Z,30.60
2022-11-12T07:40:28.585Z,31.40
2022-11-12T07:45:53.470Z,34.20
2022-11-12T07:51:19.416Z,33.10
2022-11-12T07:56:44.353Z,36.10
2022-11-12T08:02:10.344Z,32.90
2022-11-12T08:07:35.382Z,37.60
2022-11-12T08:13:00.143Z,36.00
2022-11-12T08:18:25.374Z,38.50
2022-11-12T08:23:50.828Z,34.50
2022-11-12T08:29:15.996Z,39.80
2022-11-12T08:34:41.483Z,44.40
2022-11-12T08:40:07.602Z,39.10
2022-11-12T08:45:34.282Z,38.40
2022-11-12T08:51:01.516Z,39.90
2022-11-12T08:56:26.379Z,37.40
2022-11-12T09:01:51.095Z,36.50
2022-11-12T09:07:43.510Z,35.40
2022-11-12T09:13:01.341Z,36.00
2022-11-12T09:18:26.355Z,39.10
2022-11-12T09:23:51.210Z,34.70
2022-11-12T09:29:15.621Z,40.80
2022-11-12T09:34:40.133Z,37.20
2022-11-12T09:40:06.386Z,33.20
2022-11-12T09:45:32.849Z,38.80
2022-11-12T09:51:00.744Z,38.40
2022-11-12T09:56:28.513Z,32.80
2022-11-12T10:02:16.397Z,33.60
2022-11-12T10:07:52.870Z,38.20
2022-11-12T10:13:31.959Z,30.90
2022-11-12T10:19:10.736Z,32.60
2022-11-12T10:24:38.927Z,34.10
2022-11-12T10:30:05.797Z,30.90
2022-11-12T10:35:30.372Z,31.50
2022-11-12T10:40:55.830Z,31.40
2022-11-12T10:46:23.190Z,33.70
2022-11-12T10:51:57.057Z,29.30
2022-11-12T10:57:24.535Z,29.10
2022-11-12T11:02:51.404Z,38.00
2022-11-12T11:08:35.740Z,27.50
2022-11-12T11:14:25.795Z,29.80
2022-11-12T11:19:50.369Z,29.60
2022-11-12T11:25:27.833Z,22.60
2022-11-12T11:30:59.593Z,26.80
2022-11-12T11:42:12.981Z,26.80
2022-11-12T11:48:01.240Z,28.40
2022-11-12T11:53:30.010Z,27.20
2022-11-12T11:59:17.161Z,28.40
2022-11-12T12:04:48.862Z,23.30
2022-11-12T12:10:46.173Z,27.00
2022-11-12T12:16:24.546Z,29.10
2022-11-12T12:21:51.663Z,21.90
2022-11-12T12:27:21.334Z,25.00
2022-11-12T12:32:51.411Z,24.10
2022-11-12T12:38:23.446Z,29.60
2022-11-12T12:43:52.813Z,26.60
2022-11-12T12:49:22.780Z,23.20
2022-11-12T12:55:00.097Z,20.80
2022-11-12T13:00:32.434Z,23.50
2022-11-12T13:06:13.922Z,21.40
2022-11-12T13:12:06.001Z,23.30
2022-11-12T13:17:51.251Z,21.70
2022-11-12T13:24:04.996Z,21.70
2022-11-12T13:29:47.021Z,24.60
2022-11-12T13:35:38.557Z,28.90
2022-11-12T13:41:14.890Z,21.40
2022-11-12T13:46:39.594Z,20.30
2022-11-12T13:52:07.048Z,20.70
2022-11-12T13:57:33.556Z,27.90
2022-11-12T14:03:01.599Z,22.50
2022-11-12T14:08:46.007Z,21.90
2022-11-12T14:14:21.413Z,17.60
2022-11-12T14:20:13.957Z,21.50
2022-11-12T14:25:48.414Z,23.00
2022-11-12T14:31:23.551Z,20.90
2022-11-12T14:36:49.399Z,20.60
2022-11-12T14:42:16.657Z,24.80
2022-11-12T14:47:41.321Z,23.70
2022-11-12T14:53:12.067Z,23.40
2022-11-12T14:58:36.509Z,20.00
2022-11-12T15:04:19.345Z,20.20
2022-11-12T15:09:43.830Z,22.90
2022-11-12T15:15:19.123Z,26.60
2022-11-12T15:20:43.486Z,22.80
2022-11-12T15:26:23.240Z,22.50
2022-11-12T15:31:51.193Z,24.40
2022-11-12T15:37:25.732Z,25.20
2022-11-12T15:42:50.537Z,23.00
2022-11-12T15:48:15.456Z,20.60
2022-11-12T15:53:40.002Z,22.70
2022-11-12T15:59:05.681Z,25.20
2022-11-12T16:04:30.311Z,24.00
2022-11-12T16:09:54.862Z,21.50
2022-11-12T16:15:20.945Z,28.30
2022-11-12T16:20:45.246Z,25.50
2022-11-12T16:26:14.816Z,21.90
2022-11-12T16:31:40.322Z,25.80
2022-11-12T16:37:05.822Z,25.70
2022-11-12T16:42:29.919Z,28.50
2022-11-12T16:47:55.784Z,22.50
2022-11-12T16:53:20.527Z,25.90
2022-11-12T16:58:46.496Z,29.70
2022-11-12T17:04:11.489Z,27.30
2022-11-12T17:09:36.337Z,30.60
2022-11-12T17:15:03.113Z,31.80
2022-11-12T17:20:27.684Z,38.00
2022-11-12T17:26:01.816Z,44.30
2022-11-12T17:31:26.820Z,43.10
2022-11-12T17:36:51.500Z,35.40
2022-11-12T17:42:16.177Z,43.70
2022-11-12T17:47:40.934Z,30.60
2022-11-12T17:53:05.495Z,31.60
2022-11-12T17:58:30.205Z,35.00
2022-11-12T18:03:57.130Z,30.70
2022-11-12T18:09:21.440Z,32.00
2022-11-12T18:14:45.798Z,33.20
2022-11-12T18:20:11.569Z,34.90
2022-11-12T18:25:38.244Z,39.60
2022-11-12T18:31:04.582Z,40.00
2022-11-12T18:36:29.310Z,35.30
2022-11-12T18:41:54.966Z,37.60
2022-11-12T18:47:21.067Z,48.70
2022-11-12T18:52:46.470Z,34.80
2022-11-12T18:58:11.012Z,40.90
2022-11-12T19:03:37.084Z,35.00
2022-11-12T19:09:02.053Z,32.70
2022-11-12T19:14:26.498Z,31.50
2022-11-12T19:19:51.551Z,26.70
2022-11-12T19:25:16.872Z,28.90
2022-11-12T19:30:41.591Z,35.80
2022-11-12T19:36:09.136Z,29.90
2022-11-12T19:41:33.884Z,49.80
2022-11-12T19:46:58.330Z,38.50
2022-11-12T19:52:23.798Z,36.30
2022-11-12T19:57:48.151Z,36.10
2022-11-12T20:03:12.777Z,39.60
2022-11-12T20:08:37.832Z,34.30
2022-11-12T20:14:02.791Z,39.70
2022-11-12T20:19:28.475Z,32.40
2022-11-12T20:24:52.853Z,32.00
2022-11-12T20:30:17.844Z,33.80
2022-11-12T20:35:42.319Z,34.90
2022-11-12T20:41:09.924Z,35.90
2022-11-12T20:46:34.461Z,34.00
2022-11-12T20:51:59.024Z,40.50
2022-11-12T20:57:24.674Z,37.20
2022-11-12T21:02:49.334Z,34.30
2022-11-12T21:08:13.980Z,31.10
2022-11-12T21:13:39.937Z,34.70
2022-11-12T21:19:05.881Z,41.30
2022-11-12T21:24:30.565Z,36.50
2022-11-12T21:29:54.861Z,36.40
2022-11-12T21:35:20.138Z,37.80
2022-11-12T21:40:45.123Z,41.10
2022-11-12T21:46:12.647Z,39.20
2022-11-12T21:51:37.153Z,38.30
2022-11-12T21:57:01.823Z,40.80
2022-11-12T22:02:26.201Z,53.70
2022-11-12T22:07:53.833Z,47.30
2022-11-12T22:13:26.990Z,40.90
2022-11-12T22:18:54.021Z,41.40
2022-11-12T22:24:18.949Z,42.00
2022-11-12T22:29:43.854Z,41.30
2022-11-12T22:35:09.411Z,39.40
2022-11-12T22:40:34.123Z,39.20
2022-11-12T22:46:02.597Z,44.30
2022-11-12T22:51:28.861Z,42.30
2022-11-12T22:56:52.982Z,41.00
2022-11-12T23:02:17.849Z,42.40
2022-11-12T23:07:42.440Z,48.20
2022-11-12T23:13:07.175Z,40.00
2022-11-12T23:18:31.570Z,40.80
2022-11-12T23:23:58.143Z,41.50
2022-11-12T23:29:22.582Z,41.80
2022-11-12T23:34:47.233Z,40.80
2022-11-12T23:40:12.599Z,38.60
2022-11-12T23:45:38.805Z,43.50
2022-11-12T23:51:05.604Z,42.40
2022-11-12T23:56:29.997Z,41.00
